Time;durP1;ratioP1;P1;durP2;ratioP2;P2;SDS_P1;SDS_P2;PMS_P1;PMS_P2;Temp;Humidity;BMP_temperature;BMP_pressure;BME280_temperature;BME280_humidity;BME280_pressure;Samples;Min_cycle;Max_cycle;Signal;HPM_P1;HPM_P2
2024/02/25 00:01:18;;;;;;;1.90;1.50;;;;;;;2.87;100.00;100375.69;4984839;28;20096;-76
2024/02/25 00:03:44;;;;;;;1.70;0.90;;;;;;;2.85;100.00;100372.47;4992333;28;20196;-76
2024/02/25 00:06:16;;;;;;;;;;;;;;;2.85;100.00;100372.47;4986525;28;20096;-77
2024/02/25 00:08:51;;;;;;;1.73;0.93;;;;;;;2.84;100.00;100370.03;4988251;28;20371;-77
2024/02/25 00:11:23;;;;;;;2.55;1.20;;;;;;;2.80;100.00;100372.34;4986003;28;20437;-75
2024/02/25 00:13:50;;;;;;;2.22;1.10;;;;;;;2.77;100.00;100367.50;4979353;28;20038;-76
2024/02/25 00:16:16;;;;;;;1.92;1.42;;;;;;;2.73;100.00;100374.28;5008577;28;20076;-75
2024/02/25 00:18:52;;;;;;;2.45;1.20;;;;;;;2.71;100.00;100376.38;4978878;28;20458;-76
2024/02/25 00:21:19;;;;;;;2.30;1.30;;;;;;;2.71;100.00;100381.66;4979551;28;20080;-75
2024/02/25 00:23:55;;;;;;;1.98;1.05;;;;;;;2.67;100.00;100376.00;4989859;28;20046;-75
2024/02/25 00:26:28;;;;;;;3.28;1.55;;;;;;;2.66;100.00;100376.22;4984570;28;20603;-75
2024/02/25 00:28:55;;;;;;;2.42;1.25;;;;;;;2.66;100.00;100384.97;4983406;28;20103;-76
2024/02/25 00:31:21;;;;;;;3.33;1.65;;;;;;;2.66;100.00;100381.53;5000110;28;20046;-75
2024/02/25 00:33:49;;;;;;;2.20;1.13;;;;;;;2.63;100.00;100385.41;5004602;28;20620;-77
2024/02/25 00:36:25;;;;;;;3.00;1.58;;;;;;;2.62;100.00;100383.00;4984807;28;20048;-76
2024/02/25 00:39:02;;;;;;;2.38;1.30;;;;;;;2.62;100.00;100378.50;4989133;28;20481;-76
2024/02/25 00:41:31;;;;;;;1.80;1.10;;;;;;;2.61;100.00;100382.19;4988408;28;20506;-77
2024/02/25 00:44:12;;;;;;;2.67;0.90;;;;;;;2.60;100.00;100380.59;4989679;28;20092;-76
2024/02/25 00:46:46;;;;;;;1.83;1.02;;;;;;;2.58;100.00;100376.56;5008090;28;20041;-77
2024/02/25 00:49:18;;;;;;;4.95;1.27;;;;;;;2.54;100.00;100375.38;4984890;28;20038;-77
2024/02/25 00:51:45;;;;;;;2.40;1.10;;;;;;;2.49;100.00;100367.31;5003839;28;20065;-77
2024/02/25 00:54:16;;;;;;;2.05;1.45;;;;;;;2.51;100.00;100370.53;4987739;28;20037;-77
2024/02/25 00:56:44;;;;;;;1.98;1.23;;;;;;;2.47;100.00;100365.72;5006916;28;20055;-77
2024/02/25 00:59:16;;;;;;;2.33;1.20;;;;;;;2.47;100.00;100355.13;4988704;28;20041;-77
2024/02/25 01:01:42;;;;;;;3.72;1.45;;;;;;;2.47;100.00;100364.91;4979524;28;20046;-77
2024/02/25 01:04:18;;;;;;;1.98;1.38;;;;;;;2.47;100.00;100365.72;5002577;28;20536;-79
2024/02/25 01:06:48;;;;;;;;;;;;;;;2.47;100.00;100378.94;4986790;28;20044;-79
2024/02/25 01:09:14;;;;;;;3.28;1.45;;;;;;;2.46;100.00;100379.16;4971000;28;20029;-78
2024/02/25 01:11:39;;;;;;;2.20;1.40;;;;;;;2.44;100.00;100382.03;5006616;28;20163;-76
2024/02/25 01:14:05;;;;;;;2.72;1.35;;;;;;;2.43;100.00;100375.09;4987832;28;20080;-77
2024/02/25 01:16:31;;;;;;;2.75;1.60;;;;;;;2.43;100.00;100375.09;5002642;28;20034;-77
2024/02/25 01:18:56;;;;;;;2.10;1.30;;;;;;;2.39;100.00;100367.88;5004410;28;20049;-76
2024/02/25 01:21:22;;;;;;;2.30;1.80;;;;;;;2.40;100.00;100375.56;4991715;28;20574;-76
2024/02/25 01:23:48;;;;;;;2.97;1.45;;;;;;;2.38;100.00;100372.34;5001886;28;20041;-76
2024/02/25 01:26:14;;;;;;;2.60;1.63;;;;;;;2.37;100.00;100370.75;5002602;28;21056;-76
2024/02/25 01:28:40;;;;;;;2.10;1.30;;;;;;;2.37;100.00;100360.19;4999962;28;20685;-76
2024/02/25 01:31:05;;;;;;;2.90;1.73;;;;;;;2.35;100.00;100367.50;4999526;28;20543;-78
2024/02/25 01:33:31;;;;;;;3.00;1.85;;;;;;;2.33;100.00;100358.19;5001957;28;20153;-78
2024/02/25 01:35:57;;;;;;;3.05;1.60;;;;;;;2.30;100.00;100354.16;5000276;28;20124;-79
2024/02/25 01:38:23;;;;;;;3.78;1.85;;;;;;;2.29;100.00;100354.38;4986963;28;20045;-76
2024/02/25 01:40:49;;;;;;;5.43;1.60;;;;;;;2.24;100.00;100354.28;4989706;28;20030;-77
2024/02/25 01:43:17;;;;;;;2.50;1.63;;;;;;;2.22;100.00;100362.41;4990857;28;20046;-76
2024/02/25 01:45:44;;;;;;;2.33;1.33;;;;;;;2.24;100.00;100352.44;5004148;28;20622;-77
2024/02/25 01:48:10;;;;;;;4.85;1.90;;;;;;;2.23;100.00;100353.44;5005787;28;20119;-76
2024/02/25 01:50:36;;;;;;;2.33;1.50;;;;;;;2.18;100.00;100346.19;5007605;28;20069;-77
2024/02/25 01:53:02;;;;;;;2.70;1.58;;;;;;;2.18;100.00;100362.06;4998725;28;20198;-78
2024/02/25 01:55:34;;;;;;;5.78;2.00;;;;;;;2.16;100.00;100347.44;4998312;28;20589;-77
2024/02/25 01:58:02;;;;;;;3.45;1.77;;;;;;;2.15;100.00;100348.47;4994204;28;20034;-75
2024/02/25 02:00:29;;;;;;;3.00;1.98;;;;;;;2.14;100.00;100354.78;5001655;28;20033;-77
2024/02/25 02:02:54;;;;;;;;;;;;;;;2.14;100.00;100352.16;4998000;28;20046;-76
2024/02/25 02:05:20;;;;;;;3.50;1.95;;;;;;;2.14;100.00;100357.44;5006500;28;19975;-77
2024/02/25 02:07:47;;;;;;;2.20;1.58;;;;;;;2.15;100.00;100356.41;4986627;28;20037;-77
2024/02/25 02:10:14;;;;;;;4.97;1.90;;;;;;;2.14;100.00;100357.44;5002144;28;20126;-76
2024/02/25 02:12:44;;;;;;;2.38;1.55;;;;;;;2.15;100.00;100351.13;5007624;28;20072;-75
2024/02/25 02:15:11;;;;;;;2.50;1.80;;;;;;;2.13;100.00;100353.97;4987987;28;20030;-75
2024/02/25 02:17:41;;;;;;;2.97;1.98;;;;;;;2.12;100.00;100356.84;5007429;28;20146;-75
2024/02/25 02:20:18;;;;;;;3.22;1.75;;;;;;;2.11;100.00;100342.03;5002802;28;20112;-77
2024/02/25 02:22:44;;;;;;;2.53;1.63;;;;;;;2.12;100.00;100346.28;5004319;28;20820;-76
2024/02/25 02:25:10;;;;;;;4.97;1.92;;;;;;;2.13;100.00;100342.63;4969376;28;20037;-76
2024/02/25 02:27:39;;;;;;;;;;;;;;;2.12;100.00;100341.81;4983707;28;20384;-76
2024/02/25 02:30:07;;;;;;;2.85;1.58;;;;;;;2.12;100.00;100343.66;4991825;28;19916;-77
2024/02/25 02:32:33;;;;;;;3.38;2.10;;;;;;;2.11;100.00;100334.91;4979961;28;20396;-76
2024/02/25 02:34:58;;;;;;;3.80;1.67;;;;;;;2.09;100.00;100330.88;5002776;28;20152;-78
2024/02/25 02:37:24;;;;;;;4.38;1.90;;;;;;;2.09;100.00;100336.16;5007600;28;20060;-76
2024/02/25 02:39:50;;;;;;;2.42;1.60;;;;;;;2.09;100.00;100338.78;5002546;28;20041;-78
2024/02/25 02:42:16;;;;;;;3.00;1.90;;;;;;;2.08;100.00;100334.53;4989264;28;20061;-76
2024/02/25 02:44:45;;;;;;;3.58;1.60;;;;;;;2.09;100.00;100346.72;4972304;28;20124;-76
2024/02/25 02:47:20;;;;;;;2.92;1.55;;;;;;;2.10;100.00;100348.31;5002938;28;20503;-74
2024/02/25 02:49:47;;;;;;;2.17;1.40;;;;;;;2.10;100.00;100348.31;5008875;28;20033;-76
2024/02/25 02:52:14;;;;;;;3.35;1.58;;;;;;;2.11;100.00;100344.69;5001197;28;20029;-76
2024/02/25 02:54:39;;;;;;;4.53;1.83;;;;;;;2.11;100.00;100342.03;5005979;28;20438;-79
2024/02/25 02:57:06;;;;;;;2.90;1.30;;;;;;;2.10;100.00;100337.75;4983323;28;20044;-78
2024/02/25 02:59:34;;;;;;;2.38;1.52;;;;;;;2.10;100.00;100345.69;5003537;28;20030;-78
2024/02/25 03:01:59;;;;;;;2.20;1.52;;;;;;;2.10;100.00;100340.41;4999693;28;20072;-75
2024/02/25 03:04:27;;;;;;;4.00;2.00;;;;;;;2.10;100.00;100343.03;5000139;28;20061;-78
2024/02/25 03:06:52;;;;;;;2.75;1.33;;;;;;;2.09;100.00;100336.16;5003220;28;20033;-77
2024/02/25 03:09:18;;;;;;;2.30;1.40;;;;;;;2.10;100.00;100330.66;5003995;28;20553;-76
2024/02/25 03:11:44;;;;;;;4.38;1.40;;;;;;;2.10;100.00;100328.03;5005307;28;20063;-76
2024/02/25 03:14:09;;;;;;;3.75;1.88;;;;;;;2.08;100.00;100323.97;4980910;28;20584;-76
2024/02/25 03:16:37;;;;;;;2.55;1.80;;;;;;;2.07;100.00;100336.38;4982384;28;20042;-77
2024/02/25 03:19:03;;;;;;;2.83;1.40;;;;;;;2.07;100.00;100338.22;4985035;28;20414;-77
2024/02/25 03:21:29;;;;;;;2.17;1.60;;;;;;;2.07;100.00;100327.66;5017237;28;20034;-76
2024/02/25 03:23:55;;;;;;;2.90;1.45;;;;;;;2.04;100.00;100323.63;4999016;28;20034;-76
2024/02/25 03:26:21;;;;;;;2.47;1.45;;;;;;;2.05;100.00;100329.72;4999341;28;20034;-76
2024/02/25 03:28:47;;;;;;;2.35;1.40;;;;;;;2.03;100.00;100322.03;5001351;28;20578;-76
2024/02/25 03:31:12;;;;;;;2.10;1.15;;;;;;;2.03;100.00;100322.03;4968704;28;20649;-75
2024/02/25 03:33:39;;;;;;;5.35;1.70;;;;;;;2.04;100.00;100312.25;5015766;28;20109;-77
2024/02/25 03:36:05;;;;;;;;;;;;;;;2.05;100.00;100319.16;4981904;28;20033;-77
2024/02/25 03:38:31;;;;;;;3.38;1.67;;;;;;;2.04;100.00;100321.00;4985370;28;20308;-75
2024/02/25 03:40:56;;;;;;;3.13;1.23;;;;;;;2.04;100.00;100312.25;4966546;28;20034;-76
2024/02/25 03:43:23;;;;;;;3.28;1.20;;;;;;;2.03;100.00;100321.19;5004778;28;20069;-76
2024/02/25 03:45:48;;;;;;;;;;;;;;;2.00;100.00;100324.28;4985542;28;20059;-76
2024/02/25 03:48:14;;;;;;;3.70;1.30;;;;;;;1.99;100.00;100320.84;4982575;28;19917;-77
2024/02/25 03:50:40;;;;;;;4.50;1.80;;;;;;;2.01;100.00;100320.63;4992935;28;20042;-76
2024/02/25 03:53:05;;;;;;;2.38;1.30;;;;;;;1.99;100.00;100320.03;4981175;28;20125;-74
2024/02/25 03:55:31;;;;;;;3.47;1.90;;;;;;;1.96;100.00;100317.84;5003848;28;20145;-76
2024/02/25 03:57:57;;;;;;;2.60;1.30;;;;;;;1.94;100.00;100306.69;5001183;28;20034;-76
2024/02/25 04:00:23;;;;;;;1.98;1.40;;;;;;;1.90;100.00;100312.44;4982887;28;20042;-78
2024/02/25 04:02:49;;;;;;;2.42;1.25;;;;;;;1.90;100.00;100311.63;4999977;28;20033;-77
2024/02/25 04:05:15;;;;;;;3.08;1.70;;;;;;;1.86;100.00;100321.81;4987146;28;20103;-78
2024/02/25 04:07:42;;;;;;;2.40;1.65;;;;;;;1.85;100.00;100322.84;5004323;28;20042;-77
2024/02/25 04:10:09;;;;;;;2.70;1.50;;;;;;;1.84;100.00;100318.59;4987033;28;20037;-78
2024/02/25 04:12:36;;;;;;;3.10;1.33;;;;;;;1.86;100.00;100310.47;5003860;28;20503;-77
2024/02/25 04:15:01;;;;;;;;;;;;;;;1.87;100.00;100309.44;5008234;28;20044;-77
2024/02/25 04:17:29;;;;;;;2.75;1.50;;;;;;;1.90;100.00;100311.63;4981238;28;19922;-77
2024/02/25 04:19:55;;;;;;;2.33;1.20;;;;;;;1.92;100.00;100306.94;4993957;28;20040;-77
2024/02/25 04:22:22;;;;;;;2.25;1.10;;;;;;;1.95;100.00;100317.03;4974067;28;20130;-76
2024/02/25 04:24:50;;;;;;;2.67;1.25;;;;;;;1.96;100.00;100307.28;5009184;28;20036;-76
2024/02/25 04:27:16;;;;;;;3.00;1.30;;;;;;;1.99;100.00;100301.56;5008003;28;20030;-76
2024/02/25 04:29:45;;;;;;;3.47;1.73;;;;;;;1.96;100.00;100296.72;4988449;28;20046;-76
2024/02/25 04:32:12;;;;;;;3.03;1.38;;;;;;;2.01;100.00;100291.56;5001359;28;20045;-77
2024/02/25 04:34:37;;;;;;;;;;;;;;;2.01;100.00;100296.84;5007653;28;20459;-77
2024/02/25 04:37:03;;;;;;;2.00;1.25;;;;;;;2.01;100.00;100302.13;4991931;28;19921;-77
2024/02/25 04:39:29;;;;;;;2.53;1.33;;;;;;;2.00;100.00;100301.31;5007575;28;20092;-77
2024/02/25 04:41:55;;;;;;;3.85;1.40;;;;;;;1.99;100.00;100293.63;4992554;28;20108;-76
2024/02/25 04:44:21;;;;;;;3.15;1.55;;;;;;;1.99;100.00;100288.34;5000425;28;20070;-76
2024/02/25 04:46:47;;;;;;;4.50;1.75;;;;;;;2.00;100.00;100298.69;5004949;28;20589;-76
2024/02/25 04:49:15;;;;;;;3.97;1.23;;;;;;;1.97;100.00;100290.44;5003139;28;20033;-75
2024/02/25 04:51:41;;;;;;;3.10;1.52;;;;;;;1.98;100.00;100297.31;4990154;28;20070;-77
2024/02/25 04:54:08;;;;;;;1.98;1.13;;;;;;;2.01;100.00;100294.22;5010951;28;20116;-78
2024/02/25 04:56:34;;;;;;;2.70;1.50;;;;;;;2.04;100.00;100291.13;4993914;28;20042;-77
2024/02/25 04:58:59;;;;;;;2.10;1.10;;;;;;;2.07;100.00;100285.41;4992782;28;20088;-77
2024/02/25 05:01:25;;;;;;;2.70;1.30;;;;;;;2.07;100.00;100285.41;4983145;28;20048;-75
2024/02/25 05:03:50;;;;;;;2.45;1.13;;;;;;;2.10;100.00;100279.66;5008729;28;20041;-78
2024/02/25 05:06:16;;;;;;;2.13;1.35;;;;;;;2.12;100.00;100288.19;4985738;28;20124;-78
2024/02/25 05:08:42;;;;;;;3.15;1.70;;;;;;;2.13;100.00;100277.38;4997537;28;20044;-77
2024/02/25 05:11:07;;;;;;;2.00;1.10;;;;;;;2.17;100.00;100285.66;5002106;28;20048;-77
2024/02/25 05:13:32;;;;;;;2.42;1.33;;;;;;;2.15;100.00;100279.78;5002651;28;20124;-77
2024/02/25 05:15:58;;;;;;;2.90;1.20;;;;;;;2.17;100.00;100277.75;5020824;28;20041;-77
2024/02/25 05:18:27;;;;;;;2.95;1.15;;;;;;;2.18;100.00;100282.78;4992739;28;20088;-77
2024/02/25 05:20:52;;;;;;;4.00;1.10;;;;;;;2.19;100.00;100278.31;5026196;28;20037;-78
2024/02/25 05:23:18;;;;;;;2.33;1.20;;;;;;;2.22;100.00;100267.28;5002816;28;20450;-77
2024/02/25 05:25:43;;;;;;;1.70;1.35;;;;;;;2.22;100.00;100271.75;5001176;28;20045;-77
2024/02/25 05:28:09;;;;;;;2.50;1.30;;;;;;;2.21;100.00;100260.41;5003971;28;20048;-77
2024/02/25 05:30:35;;;;;;;2.13;1.15;;;;;;;2.22;100.00;100262.00;4970852;28;20037;-77
2024/02/25 05:33:00;;;;;;;2.83;1.13;;;;;;;2.22;100.00;100254.06;5002658;28;20041;-76
2024/02/25 05:35:26;;;;;;;1.50;0.80;;;;;;;2.23;100.00;100263.59;5003893;28;20117;-77
2024/02/25 05:37:52;;;;;;;2.38;1.10;;;;;;;2.23;100.00;100258.31;5006435;28;20037;-77
2024/02/25 05:40:17;;;;;;;1.55;1.00;;;;;;;2.24;100.00;100257.31;4985630;28;20042;-77
2024/02/25 05:42:43;;;;;;;2.53;1.27;;;;;;;2.23;100.00;100253.03;5005080;28;20041;-77
2024/02/25 05:45:11;;;;;;;3.17;1.23;;;;;;;2.25;100.00;100244.91;4990125;28;20148;-76
2024/02/25 05:47:37;;;;;;;2.50;1.42;;;;;;;2.25;100.00;100252.84;5007186;28;20025;-76
2024/02/25 05:50:03;;;;;;;1.70;1.00;;;;;;;2.25;100.00;100251.00;5007564;28;20449;-76
2024/02/25 05:52:28;;;;;;;3.65;1.08;;;;;;;2.26;100.00;100257.09;5004261;28;20498;-76
2024/02/25 05:54:56;;;;;;;3.45;1.30;;;;;;;2.26;100.00;100257.09;5004612;28;20541;-76
2024/02/25 05:57:22;;;;;;;2.13;1.13;;;;;;;2.25;100.00;100253.63;4974642;28;20538;-75
2024/02/25 05:59:47;;;;;;;3.67;1.65;;;;;;;2.29;100.00;100251.34;5004744;28;20517;-75
2024/02/25 06:02:13;;;;;;;2.05;1.15;;;;;;;2.31;100.00;100258.03;4996478;28;20033;-75
2024/02/25 06:04:39;;;;;;;3.83;1.42;;;;;;;2.32;100.00;100246.41;5000411;28;20034;-75
2024/02/25 06:07:05;;;;;;;2.00;1.15;;;;;;;2.32;100.00;100249.06;4998028;28;20036;-75
2024/02/25 06:09:30;;;;;;;3.75;1.45;;;;;;;2.31;100.00;100250.09;5000476;28;20145;-76
2024/02/25 06:11:56;;;;;;;4.05;0.98;;;;;;;2.32;100.00;100248.25;5001473;28;20052;-75
2024/02/25 06:14:22;;;;;;;2.70;1.50;;;;;;;2.32;100.00;100250.91;5006725;28;20053;-76
2024/02/25 06:16:47;;;;;;;3.72;1.58;;;;;;;2.31;100.00;100244.81;5001895;28;20038;-76
2024/02/25 06:19:13;;;;;;;1.58;1.02;;;;;;;2.34;100.00;100248.81;4998188;28;20039;-76
2024/02/25 06:21:46;;;;;;;2.50;1.27;;;;;;;2.35;100.00;100239.84;5006580;28;20044;-76
2024/02/25 06:24:12;;;;;;;3.17;0.98;;;;;;;2.38;100.00;100244.69;5004202;28;20083;-75
2024/02/25 06:26:37;;;;;;;1.95;1.13;;;;;;;2.36;100.00;100242.25;4998978;28;20041;-74
2024/02/25 06:29:03;;;;;;;3.90;1.40;;;;;;;2.37;100.00;100243.91;5000297;28;20031;-74
2024/02/25 06:31:32;;;;;;;3.15;1.30;;;;;;;2.38;100.00;100245.50;5002367;28;20079;-75
2024/02/25 06:33:58;;;;;;;2.17;1.10;;;;;;;2.38;100.00;100234.94;4991815;28;20044;-73
2024/02/25 06:36:24;;;;;;;3.20;1.05;;;;;;;2.41;100.00;100242.41;5001841;28;20035;-75
2024/02/25 06:38:50;;;;;;;2.83;1.27;;;;;;;2.43;100.00;100250.88;4984479;28;20038;-74
2024/02/25 06:41:19;;;;;;;2.08;1.10;;;;;;;2.43;100.00;100240.31;5005055;28;20037;-75
2024/02/25 06:43:45;;;;;;;2.70;1.38;;;;;;;2.47;100.00;100238.03;4998539;28;20130;-75
2024/02/25 06:46:11;;;;;;;1.83;1.00;;;;;;;2.49;100.00;100245.72;5005854;28;20038;-75
2024/02/25 06:48:37;;;;;;;4.90;1.02;;;;;;;2.49;100.00;100258.94;4984360;28;20057;-74
2024/02/25 06:51:03;;;;;;;2.63;1.05;;;;;;;2.49;100.00;100258.94;5006533;28;20043;-75
2024/02/25 06:53:30;;;;;;;2.03;1.10;;;;;;;2.47;100.00;100257.34;4986622;28;20034;-75
2024/02/25 06:55:57;;;;;;;3.13;1.30;;;;;;;2.51;100.00;100254.22;5003943;28;20088;-76
2024/02/25 06:58:22;;;;;;;2.25;1.00;;;;;;;2.54;100.00;100254.59;5002868;28;20034;-75
2024/02/25 07:00:48;;;;;;;3.08;1.30;;;;;;;2.57;100.00;100258.59;5002528;28;20042;-75
2024/02/25 07:03:13;;;;;;;3.30;1.55;;;;;;;2.62;100.00;100254.25;4998661;28;20033;-74
2024/02/25 07:05:43;;;;;;;2.05;1.08;;;;;;;2.63;100.00;100255.06;4999158;28;20505;-74
2024/02/25 07:08:08;;;;;;;1.73;1.20;;;;;;;2.67;100.00;100256.22;4983995;28;20034;-74
2024/02/25 07:10:34;;;;;;;1.90;1.02;;;;;;;2.70;100.00;100258.38;4998355;28;20096;-74
2024/02/25 07:13:00;;;;;;;1.95;0.90;;;;;;;2.72;100.00;100251.06;5008588;28;20033;-74
2024/02/25 07:15:26;;;;;;;3.15;1.10;;;;;;;2.75;100.00;100261.16;5000930;28;20030;-74
2024/02/25 07:17:53;;;;;;;2.10;1.25;;;;;;;2.79;100.00;100262.31;5002128;28;20046;-73
2024/02/25 07:20:19;;;;;;;2.40;0.88;;;;;;;2.80;100.00;100263.94;4996126;28;20038;-74
2024/02/25 07:22:45;;;;;;;;;;;;;;;2.83;100.00;100258.16;5002182;28;20037;-74
2024/02/25 07:25:10;;;;;;;3.05;1.08;;;;;;;2.86;100.00;100257.72;5014776;28;20084;-74
2024/02/25 07:27:37;;;;;;;2.28;0.90;;;;;;;2.90;100.00;100258.06;5017336;28;20030;-75
2024/02/25 07:30:03;;;;;;;;;;;;;;;2.92;100.00;100261.28;4985521;28;20073;-74
2024/02/25 07:32:28;;;;;;;2.00;1.00;;;;;;;2.94;100.00;100257.38;5004217;28;20068;-74
2024/02/25 07:34:54;;;;;;;1.65;1.10;;;;;;;2.97;100.00;100264.81;4986627;28;20073;-74
2024/02/25 07:37:20;;;;;;;2.00;1.10;;;;;;;3.00;100.00;100258.28;4996822;28;20029;-75
2024/02/25 07:39:46;;;;;;;2.45;1.40;;;;;;;3.05;100.00;100262.88;5005389;28;20129;-76
2024/02/25 07:42:12;;;;;;;4.32;1.10;;;;;;;3.08;100.00;100265.06;5002687;28;20038;-75
2024/02/25 07:44:38;;;;;;;1.85;0.80;;;;;;;3.10;100.00;100263.78;5001232;28;20074;-75
2024/02/25 07:47:03;;;;;;;4.30;1.10;;;;;;;3.16;100.00;100272.66;5001790;28;20088;-75
2024/02/25 07:49:29;;;;;;;2.05;1.10;;;;;;;3.19;100.00;100266.91;4999370;28;20034;-74
2024/02/25 07:51:55;;;;;;;1.70;1.10;;;;;;;3.22;100.00;100263.78;4981554;28;20092;-75
2024/02/25 07:54:21;;;;;;;3.65;1.55;;;;;;;3.27;100.00;100264.69;5003636;28;20042;-74
2024/02/25 07:56:47;;;;;;;2.60;1.20;;;;;;;3.29;100.00;100251.22;5007132;28;20037;-74
2024/02/25 07:59:13;;;;;;;3.03;1.05;;;;;;;3.33;100.00;100262.97;4992501;28;20033;-74
2024/02/25 08:01:39;;;;;;;2.05;1.00;;;;;;;3.35;100.00;100255.59;4992253;28;20454;-74
2024/02/25 08:04:04;;;;;;;3.65;1.25;;;;;;;3.35;100.00;100250.28;4989678;28;20429;-76
2024/02/25 08:06:31;;;;;;;3.10;0.90;;;;;;;3.40;100.00;100258.34;5002413;28;20077;-73
2024/02/25 08:08:57;;;;;;;1.90;1.17;;;;;;;3.43;100.00;100255.22;5006148;28;20284;-74
2024/02/25 08:11:23;;;;;;;1.60;0.80;;;;;;;3.50;100.00;100255.88;5004408;28;20570;-75
2024/02/25 08:13:49;;;;;;;2.38;1.10;;;;;;;3.53;100.00;100246.69;5005511;28;20614;-76
2024/02/25 08:16:15;;;;;;;6.22;1.25;;;;;;;3.57;100.00;100258.41;5003772;28;20029;-75
2024/02/25 08:18:44;;;;;;;2.45;0.80;;;;;;;3.59;100.00;100256.34;5000088;28;20080;-75
2024/02/25 08:21:11;;;;;;;1.90;0.95;;;;;;;3.61;100.00;100258.75;5002125;28;20030;-76
2024/02/25 08:23:36;;;;;;;1.60;0.82;;;;;;;3.68;100.00;100262.06;5002098;28;20593;-75
2024/02/25 08:26:03;;;;;;;2.28;0.98;;;;;;;3.67;100.00;100257.81;4981697;28;20042;-75
2024/02/25 08:28:29;;;;;;;2.30;1.00;;;;;;;3.70;100.00;100249.38;5000643;28;20068;-75
2024/02/25 08:30:55;;;;;;;2.40;1.10;;;;;;;3.74;100.00;100253.19;4984501;28;20038;-75
2024/02/25 08:33:20;;;;;;;1.95;1.00;;;;;;;3.78;100.00;100254.31;4985032;28;20063;-75
2024/02/25 08:35:46;;;;;;;1.95;1.15;;;;;;;3.80;100.00;100249.59;5006811;28;20037;-75
2024/02/25 08:38:12;;;;;;;2.05;0.90;;;;;;;3.84;100.00;100250.72;4992486;28;20762;-76
2024/02/25 08:40:37;;;;;;;1.85;1.10;;;;;;;3.87;100.00;100252.91;5009266;28;20799;-75
2024/02/25 08:43:03;;;;;;;2.80;1.17;;;;;;;3.92;100.00;100254.81;5005977;28;20121;-75
2024/02/25 08:45:29;;;;;;;2.88;1.00;;;;;;;3.94;100.00;100260.69;5006341;28;20446;-75
2024/02/25 08:47:54;;;;;;;2.10;1.15;;;;;;;3.98;100.00;100252.03;5004982;28;20694;-74
2024/02/25 08:50:20;;;;;;;1.83;1.05;;;;;;;4.03;100.00;100246.03;5005291;28;20117;-74
2024/02/25 08:52:46;;;;;;;3.20;1.00;;;;;;;4.07;100.00;100252.47;4988549;28;20574;-74
2024/02/25 08:55:11;;;;;;;1.77;0.75;;;;;;;4.14;100.00;100247.81;4998973;28;20411;-74
2024/02/25 08:57:37;;;;;;;2.15;0.90;;;;;;;4.18;100.00;100256.06;5006050;28;20047;-74
2024/02/25 09:00:07;;;;;;;2.45;1.30;;;;;;;4.23;100.00;100258.81;5000574;28;20033;-74
2024/02/25 09:02:34;;;;;;;3.42;1.00;;;;;;;4.27;100.00;100254.66;5005621;28;20121;-74
2024/02/25 09:05:00;;;;;;;7.88;1.40;;;;;;;4.32;100.00;100249.41;5003816;28;20030;-75
2024/02/25 09:07:27;;;;;;;2.00;1.00;;;;;;;4.36;100.00;100251.38;4974445;28;20052;-74
2024/02/25 09:09:53;;;;;;;2.90;1.13;;;;;;;4.45;100.00;100254.41;4987309;28;20373;-74
2024/02/25 09:12:19;;;;;;;1.73;0.98;;;;;;;4.50;100.00;100251.84;4985123;28;20041;-74
2024/02/25 09:14:44;;;;;;;2.50;0.82;;;;;;;4.56;100.00;100245.59;4991431;28;20041;-75
2024/02/25 09:17:10;;;;;;;2.25;1.05;;;;;;;4.65;100.00;100244.13;4986659;28;20485;-74
2024/02/25 09:19:36;;;;;;;2.97;1.13;;;;;;;4.73;100.00;100240.25;5000859;28;20030;-74
2024/02/25 09:22:02;;;;;;;3.55;1.70;;;;;;;4.82;100.00;100240.66;5001825;28;20108;-76
2024/02/25 09:24:28;;;;;;;;;;;;;;;4.92;100.00;100246.09;4985779;28;20037;-76
2024/02/25 09:26:53;;;;;;;3.45;1.83;;;;;;;4.99;100.00;100238.78;4988906;28;19920;-77
2024/02/25 09:29:23;;;;;;;3.50;1.88;;;;;;;5.08;100.00;100239.13;4988807;28;20125;-75
2024/02/25 09:31:48;;;;;;;4.85;1.95;;;;;;;5.15;100.00;100235.28;4986704;28;20045;-77
2024/02/25 09:34:14;;;;;;;3.38;1.38;;;;;;;5.20;100.00;100229.22;5004624;28;20041;-77
2024/02/25 09:36:44;;;;;;;1.95;1.17;;;;;;;5.25;100.00;100226.63;4987645;28;20033;-77
2024/02/25 09:39:09;;;;;;;3.63;1.52;;;;;;;5.30;100.00;100239.97;5004036;28;20112;-76
2024/02/25 09:41:36;;;;;;;2.45;1.20;;;;;;;5.35;100.00;100234.75;5010614;28;20044;-76
2024/02/25 09:44:03;;;;;;;5.13;1.98;;;;;;;5.43;100.00;100241.47;5003279;28;20064;-76
2024/02/25 09:46:33;;;;;;;3.40;1.15;;;;;;;5.47;100.00;100232.75;4998207;28;20034;-76
2024/02/25 09:48:59;;;;;;;1.95;1.27;;;;;;;5.54;100.00;100229.88;5003035;28;20042;-75
2024/02/25 09:51:25;;;;;;;2.80;1.42;;;;;;;5.61;100.00;100240.31;4978969;28;20080;-76
2024/02/25 09:53:53;;;;;;;3.78;1.17;;;;;;;5.67;100.00;100229.50;4986856;28;20033;-75
2024/02/25 09:56:19;;;;;;;1.95;1.00;;;;;;;5.73;100.00;100239.16;5003126;28;20037;-77
2024/02/25 09:58:45;;;;;;;2.15;1.05;;;;;;;5.81;100.00;100231.78;5007563;28;20096;-76
2024/02/25 10:01:11;;;;;;;2.55;1.15;;;;;;;5.88;100.00;100235.03;4991754;28;20041;-76
2024/02/25 10:03:41;;;;;;;2.60;1.10;;;;;;;5.96;100.00;100237.25;5000173;28;20139;-76
2024/02/25 10:06:07;;;;;;;2.20;1.33;;;;;;;6.00;100.00;100217.13;5001952;28;20030;-76
2024/02/25 10:08:45;;;;;;;2.33;1.20;;;;;;;6.08;100.00;100227.28;5003081;28;20038;-75
2024/02/25 10:11:11;;;;;;;3.20;1.13;;;;;;;6.10;100.00;100227.84;4989846;28;20041;-76
2024/02/25 10:13:37;;;;;;;3.38;1.70;;;;;;;6.12;100.00;100225.75;5002554;28;20081;-75
2024/02/25 10:16:03;;;;;;;2.03;1.42;;;;;;;6.18;100.00;100224.72;5004275;28;20073;-76
2024/02/25 10:18:29;;;;;;;3.05;1.20;;;;;;;6.27;100.00;100225.88;4998094;28;20810;-76
2024/02/25 10:21:01;;;;;;;2.60;1.20;;;;;;;6.33;100.00;100225.91;4964902;28;20042;-74
2024/02/25 10:23:27;;;;;;;1.60;1.05;;;;;;;6.39;100.00;100220.38;5003526;28;20042;-75
2024/02/25 10:25:53;;;;;;;3.08;1.20;;;;;;;6.40;100.00;100226.50;5004608;28;20033;-76
2024/02/25 10:28:19;;;;;;;1.80;1.10;;;;;;;6.43;100.00;100221.47;5004612;28;20247;-76
2024/02/25 10:31:04;;;;;;;2.25;1.05;;;;;;;6.37;100.00;100219.84;4987433;28;20466;-74
2024/02/25 10:33:30;;;;;;;1.77;0.90;;;;;;;6.38;100.00;100217.97;5002932;28;20099;-76
2024/02/25 10:36:05;;;;;;;1.70;1.13;;;;;;;6.36;100.00;100218.22;5001415;28;20041;-74
2024/02/25 10:38:31;;;;;;;2.67;1.10;;;;;;;6.37;100.00;100216.34;5003000;28;20039;-73
2024/02/25 10:40:57;;;;;;;;;;;;;;;6.40;100.00;100216.66;4986242;28;20049;-75
2024/02/25 10:43:25;;;;;;;2.05;0.95;;;;;;;6.41;100.00;100209.47;4999980;28;20663;-75
2024/02/25 10:45:51;;;;;;;3.05;1.00;;;;;;;6.41;100.00;100207.63;4993090;28;20499;-74
2024/02/25 10:48:20;;;;;;;2.00;1.08;;;;;;;6.43;100.00;100218.78;5016892;28;20045;-76
2024/02/25 10:50:47;;;;;;;1.90;0.90;;;;;;;6.48;100.00;100212.72;5003354;28;20033;-76
2024/02/25 10:53:13;;;;;;;;;;;;;;;6.56;100.00;100204.25;4998345;28;20046;-75
2024/02/25 10:55:40;;;;;;;2.55;0.82;;;;;;;6.64;100.00;100205.63;4995576;28;20408;-77
2024/02/25 10:58:09;;;;;;;2.88;1.23;;;;;;;6.70;100.00;100213.41;4985411;28;20129;-76
2024/02/25 11:00:36;;;;;;;1.73;0.98;;;;;;;6.70;100.00;100202.75;5015880;28;20042;-75
2024/02/25 11:03:03;;;;;;;;;;;;;;;6.73;100.00;100204.91;5000124;28;20828;-76
2024/02/25 11:05:29;;;;;;;2.88;1.23;;;;;;;6.74;100.00;100203.84;4996822;28;19917;-76
2024/02/25 11:07:58;;;;;;;2.92;1.13;;;;;;;6.76;100.00;100204.38;5003877;28;20399;-74
2024/02/25 11:10:31;;;;;;;1.98;1.20;;;;;;;6.81;100.00;100212.41;4983200;28;20026;-74
2024/02/25 11:13:01;;;;;;;2.33;1.27;;;;;;;6.82;100.00;100199.91;4997487;28;20121;-71
2024/02/25 11:15:28;;;;;;;2.83;1.17;;;;;;;6.95;100.00;100196.78;4995656;28;20034;-71
2024/02/25 11:17:58;;;;;;;1.80;1.13;;;;;;;7.16;100.00;100192.34;5000007;28;20033;-72
2024/02/25 11:20:25;;;;;;;2.45;1.20;;;;;;;7.39;100.00;100194.59;4984540;28;20038;-70
2024/02/25 11:22:51;;;;;;;2.08;1.13;;;;;;;7.45;100.00;100190.09;5003943;28;20037;-70
2024/02/25 11:25:26;;;;;;;4.05;1.10;;;;;;;7.41;100.00;100193.53;4987077;28;20083;-69
2024/02/25 11:28:06;;;;;;;2.10;1.13;;;;;;;7.37;100.00;100182.56;5003026;28;20561;-70